createdAt,value
2022-08-01T00:00:00.528Z,2.87
2022-08-01T00:04:02.107Z,2.83
2022-08-01T00:08:03.677Z,2.57
2022-08-01T00:12:05.373Z,1.90
2022-08-01T00:16:06.555Z,3.47
2022-08-01T00:20:10.289Z,3.60
2022-08-01T00:24:14.427Z,2.53
2022-08-01T00:28:14.391Z,2.27
2022-08-01T00:32:15.773Z,2.23
2022-08-01T00:36:16.915Z,2.60
2022-08-01T00:40:17.901Z,2.77
2022-08-01T00:44:18.806Z,2.27
2022-08-01T00:48:20.028Z,2.73
2022-08-01T00:52:21.126Z,2.37
2022-08-01T00:56:25.222Z,2.80
2022-08-01T01:00:27.302Z,4.77
2022-08-01T01:04:28.808Z,4.20
2022-08-01T01:08:42.264Z,6.27
2022-08-01T01:12:53.394Z,3.50
2022-08-01T01:16:54.737Z,3.37
2022-08-01T01:20:59.641Z,2.93
2022-08-01T01:29:22.281Z,2.67
2022-08-01T01:33:25.702Z,2.37
2022-08-01T01:37:28.738Z,2.90
2022-08-01T01:41:30.653Z,2.93
2022-08-01T01:45:32.656Z,3.90
2022-08-01T01:49:34.542Z,2.80
2022-08-01T01:53:37.249Z,2.37
2022-08-01T01:57:40.639Z,2.80
2022-08-01T02:02:05.689Z,4.07
2022-08-01T02:05:47.013Z,2.97
2022-08-01T02:09:49.382Z,3.23
2022-08-01T02:13:59.881Z,3.10
2022-08-01T02:18:02.674Z,2.73
2022-08-01T02:22:10.501Z,3.87
2022-08-01T02:26:15.143Z,5.83
2022-08-01T02:30:16.702Z,3.77
2022-08-01T02:34:19.537Z,2.50
2022-08-01T02:38:24.001Z,3.40
2022-08-01T02:42:26.908Z,2.77
2022-08-01T02:46:43.625Z,12.20
2022-08-01T02:50:48.015Z,2.30
2022-08-01T02:54:51.810Z,3.37
2022-08-01T02:58:54.067Z,2.80
2022-08-01T03:02:59.648Z,3.40
2022-08-01T03:07:03.267Z,5.97
2022-08-01T03:11:06.579Z,3.10
2022-08-01T03:15:10.817Z,4.50
2022-08-01T03:19:13.316Z,3.20
2022-08-01T03:23:16.008Z,3.20
2022-08-01T03:27:20.654Z,3.70
2022-08-01T03:31:21.926Z,3.17
2022-08-01T03:35:25.905Z,3.83
2022-08-01T03:39:30.622Z,3.63
2022-08-01T03:43:35.923Z,3.20
2022-08-01T03:51:49.841Z,5.60
2022-08-01T03:55:51.778Z,2.97
2022-08-01T03:59:53.421Z,4.50
2022-08-01T04:03:55.235Z,3.30
2022-08-01T04:07:56.727Z,3.20
2022-08-01T04:12:00.319Z,3.30
2022-08-01T04:16:01.804Z,3.53
2022-08-01T04:20:03.535Z,3.10
2022-08-01T04:24:14.186Z,3.70
2022-08-01T04:28:16.811Z,5.77
2022-08-01T04:32:20.800Z,4.50
2022-08-01T04:36:24.401Z,3.17
2022-08-01T04:40:26.672Z,3.30
2022-08-01T04:44:32.477Z,3.40
2022-08-01T04:48:33.215Z,4.00
2022-08-01T04:52:38.629Z,4.27
2022-08-01T04:56:44.063Z,4.67
2022-08-01T05:00:45.986Z,4.43
2022-08-01T05:04:47.131Z,5.70
2022-08-01T05:08:48.329Z,4.83
2022-08-01T05:12:49.355Z,4.47
2022-08-01T05:16:50.786Z,4.67
2022-08-01T05:20:52.213Z,8.10
2022-08-01T05:24:53.330Z,5.10
2022-08-01T05:28:55.209Z,4.60
2022-08-01T05:32:56.197Z,6.40
2022-08-01T05:36:58.710Z,6.30
2022-08-01T05:40:59.917Z,5.90
2022-08-01T05:45:01.328Z,5.97
2022-08-01T05:49:04.759Z,6.40
2022-08-01T05:53:05.941Z,8.13
2022-08-01T05:57:07.229Z,8.43
2022-08-01T06:01:08.503Z,8.23
2022-08-01T06:05:13.195Z,7.03
2022-08-01T06:09:14.113Z,7.83
2022-08-01T06:13:15.106Z,8.87
2022-08-01T06:17:16.112Z,9.67
2022-08-01T06:21:17.709Z,8.07
2022-08-01T06:25:21.375Z,8.47
2022-08-01T06:29:22.343Z,9.27
2022-08-01T06:33:23.523Z,11.00
2022-08-01T06:37:26.558Z,9.50
2022-08-01T06:41:27.623Z,9.13
2022-08-01T06:45:28.786Z,7.60
2022-08-01T06:49:30.135Z,9.33
2022-08-01T06:53:36.271Z,10.17
2022-08-01T06:57:34.504Z,10.13
2022-08-01T07:01:35.720Z,11.33
2022-08-01T07:05:36.852Z,10.50
2022-08-01T07:09:39.959Z,11.00
2022-08-01T07:13:45.520Z,11.03
2022-08-01T07:17:44.027Z,11.77
2022-08-01T07:21:45.758Z,10.77
2022-08-01T07:25:51.657Z,11.53
2022-08-01T07:29:52.660Z,11.07
2022-08-01T07:33:55.107Z,10.63
2022-08-01T07:37:56.285Z,12.57
2022-08-01T07:42:07.423Z,10.83
2022-08-01T07:46:01.057Z,9.67
2022-08-01T07:50:05.191Z,9.90
2022-08-01T07:54:07.418Z,8.20
2022-08-01T07:58:08.937Z,9.37
2022-08-01T08:02:11.457Z,8.50
2022-08-01T08:06:13.065Z,7.03
2022-08-01T08:10:14.329Z,8.07
2022-08-01T08:14:16.715Z,9.17
2022-08-01T08:18:17.827Z,9.70
2022-08-01T08:22:18.943Z,8.47
2022-08-01T08:26:20.395Z,9.13
2022-08-01T08:30:22.056Z,9.23
2022-08-01T08:34:24.919Z,8.67
2022-08-01T08:38:29.835Z,9.17
2022-08-01T08:42:30.766Z,8.23
2022-08-01T08:46:34.373Z,8.40
2022-08-01T08:50:37.570Z,8.83
2022-08-01T08:54:42.289Z,6.80
2022-08-01T08:58:45.700Z,6.73
2022-08-01T09:02:53.072Z,7.63
2022-08-01T09:06:56.241Z,6.33
2022-08-01T09:10:59.145Z,6.00
2022-08-01T09:15:02.008Z,5.97
2022-08-01T09:19:38.893Z,13.43
2022-08-01T09:23:38.635Z,8.40
2022-08-01T09:27:44.108Z,6.70
2022-08-01T09:31:47.358Z,7.37
2022-08-01T09:35:56.934Z,7.60
2022-08-01T09:39:58.485Z,7.57
2022-08-01T09:43:59.586Z,6.70
2022-08-01T09:48:10.578Z,6.13
2022-08-01T09:52:25.642Z,7.00
2022-08-01T09:56:26.364Z,7.30
2022-08-01T10:00:44.219Z,7.27
2022-08-01T10:04:31.350Z,6.53
2022-08-01T10:08:36.361Z,7.50
2022-08-01T10:12:45.915Z,10.20
2022-08-01T10:16:44.395Z,8.73
2022-08-01T10:20:46.971Z,8.40
2022-08-01T10:24:50.661Z,6.97
2022-08-01T10:28:52.946Z,7.90
2022-08-01T10:32:55.320Z,8.30
2022-08-01T10:36:56.901Z,6.87
2022-08-01T10:40:59.904Z,7.13
2022-08-01T10:45:01.943Z,18.30
2022-08-01T10:49:08.645Z,5.60
2022-08-01T10:53:23.037Z,5.53
2022-08-01T10:57:23.162Z,5.57
2022-08-01T11:01:27.632Z,4.70
2022-08-01T11:05:33.086Z,5.20
2022-08-01T11:09:46.962Z,5.43
2022-08-01T11:14:01.315Z,4.97
2022-08-01T11:18:05.498Z,6.30
2022-08-01T11:22:06.597Z,6.80
2022-08-01T11:26:10.480Z,6.67
2022-08-01T11:30:15.640Z,6.37
2022-08-01T11:34:20.377Z,6.10
2022-08-01T11:38:27.949Z,5.77
2022-08-01T11:42:29.238Z,6.27
2022-08-01T11:46:55.554Z,4.97
2022-08-01T11:50:58.221Z,4.87
2022-08-01T11:55:10.009Z,5.53
2022-08-01T11:59:15.342Z,5.93
2022-08-01T12:03:20.645Z,5.10
2022-08-01T12:07:23.744Z,5.03
2022-08-01T12:11:25.800Z,4.70
2022-08-01T12:15:33.902Z,4.77
2022-08-01T12:19:36.917Z,4.30
2022-08-01T12:23:38.152Z,4.80
2022-08-01T12:27:41.140Z,4.33
2022-08-01T12:31:43.806Z,3.40
2022-08-01T12:35:45.288Z,3.33
2022-08-01T12:39:47.259Z,3.40
2022-08-01T12:43:48.755Z,4.50
2022-08-01T12:47:52.744Z,3.97
2022-08-01T12:51:57.412Z,3.70
2022-08-01T12:56:00.127Z,3.83
2022-08-01T13:00:17.623Z,3.60
2022-08-01T13:04:20.714Z,4.57
2022-08-01T13:08:34.352Z,4.23
2022-08-01T13:12:36.149Z,6.03
2022-08-01T13:16:57.072Z,4.40
2022-08-01T13:21:11.575Z,4.33
2022-08-01T13:25:20.803Z,6.07
2022-08-01T13:29:23.434Z,5.23
2022-08-01T13:33:26.225Z,4.77
2022-08-01T13:37:28.170Z,4.00
2022-08-01T13:41:30.190Z,5.73
2022-08-01T13:45:31.540Z,4.87
2022-08-01T13:49:37.425Z,4.20
2022-08-01T13:53:37.587Z,6.57
2022-08-01T13:57:39.024Z,5.10
2022-08-01T14:01:40.207Z,5.27
2022-08-01T14:05:41.701Z,6.60
2022-08-01T14:09:45.180Z,4.20
2022-08-01T14:13:46.906Z,4.00
2022-08-01T14:17:48.263Z,4.20
2022-08-01T14:21:49.386Z,4.40
2022-08-01T14:26:00.635Z,3.33
2022-08-01T14:30:02.481Z,3.73
2022-08-01T14:33:56.815Z,3.37
2022-08-01T14:37:58.005Z,4.10
2022-08-01T14:42:00.892Z,3.30
2022-08-01T14:46:03.711Z,4.10
2022-08-01T14:50:06.493Z,4.73
2022-08-01T14:54:07.744Z,7.67
2022-08-01T14:58:10.472Z,13.30
2022-08-01T15:02:11.642Z,14.57
2022-08-01T15:06:12.884Z,9.07
2022-08-01T15:10:14.461Z,5.30
2022-08-01T15:14:33.938Z,4.43
2022-08-01T15:18:34.986Z,5.97
2022-08-01T15:22:36.366Z,4.63
2022-08-01T15:26:37.734Z,3.83
2022-08-01T15:30:39.483Z,5.40
2022-08-01T15:34:42.237Z,4.67
2022-08-01T15:38:44.792Z,4.43
2022-08-01T15:42:46.199Z,8.37
2022-08-01T15:46:48.653Z,5.10
2022-08-01T15:50:49.644Z,5.17
2022-08-01T15:54:50.686Z,4.87
2022-08-01T15:58:51.837Z,5.63
2022-08-01T16:02:56.720Z,5.73
2022-08-01T16:06:58.676Z,4.17
2022-08-01T16:10:59.835Z,5.10
2022-08-01T16:15:01.105Z,5.00
2022-08-01T16:19:04.706Z,4.60
2022-08-01T16:23:06.210Z,6.20
2022-08-01T16:27:07.894Z,4.20
2022-08-01T16:31:15.937Z,5.10
2022-08-01T16:35:12.440Z,4.93
2022-08-01T16:39:17.321Z,4.87
2022-08-01T16:43:19.078Z,5.43
2022-08-01T16:47:20.317Z,5.27
2022-08-01T16:51:21.621Z,5.87
2022-08-01T16:55:22.945Z,5.17
2022-08-01T16:59:24.677Z,5.10
2022-08-01T17:03:51.857Z,5.03
2022-08-01T17:07:28.924Z,5.27
2022-08-01T17:11:30.423Z,5.80
2022-08-01T17:15:36.300Z,4.60
2022-08-01T17:19:36.912Z,3.97
2022-08-01T17:23:38.099Z,5.17
2022-08-01T17:27:40.600Z,5.00
2022-08-01T17:31:42.126Z,5.13
2022-08-01T17:35:43.405Z,5.53
2022-08-01T17:39:44.652Z,5.20
2022-08-01T17:43:45.919Z,5.13
2022-08-01T17:47:50.898Z,4.47
2022-08-01T17:51:49.851Z,5.60
2022-08-01T17:55:56.698Z,5.17
2022-08-01T17:59:58.127Z,5.30
2022-08-01T18:03:59.645Z,5.57
2022-08-01T18:08:02.538Z,5.43
2022-08-01T18:12:04.284Z,5.03
2022-08-01T18:16:08.317Z,15.03
2022-08-01T18:20:10.686Z,7.13
2022-08-01T18:24:11.915Z,4.93
2022-08-01T18:28:22.315Z,4.97
2022-08-01T18:32:16.140Z,5.00
2022-08-01T18:36:32.378Z,5.90
2022-08-01T18:40:22.950Z,8.10
2022-08-01T18:44:23.546Z,6.13
2022-08-01T18:48:25.183Z,5.17
2022-08-01T18:52:28.542Z,4.17
2022-08-01T18:56:30.477Z,5.77
2022-08-01T19:00:31.487Z,11.27
2022-08-01T19:04:32.634Z,4.93
2022-08-01T19:08:33.895Z,4.30
2022-08-01T19:12:35.050Z,3.60
2022-08-01T19:16:36.237Z,3.43
2022-08-01T19:20:38.276Z,3.70
2022-08-01T19:24:40.252Z,6.30
2022-08-01T19:28:44.986Z,3.75
2022-08-01T19:32:47.964Z,4.33
2022-08-01T19:36:51.923Z,5.40
2022-08-01T19:40:53.496Z,3.87
2022-08-01T19:44:55.841Z,4.23
2022-08-01T19:48:57.253Z,4.43
2022-08-01T19:53:01.738Z,8.73
2022-08-01T19:57:05.807Z,4.90
2022-08-01T20:01:08.679Z,3.77
2022-08-01T20:05:10.031Z,3.27
2022-08-01T20:09:13.999Z,3.80
2022-08-01T20:13:16.638Z,4.03
2022-08-01T20:17:20.294Z,4.50
2022-08-01T20:21:24.796Z,3.37
2022-08-01T20:25:39.540Z,3.57
2022-08-01T20:29:37.594Z,3.40
2022-08-01T20:33:45.320Z,3.57
2022-08-01T20:38:05.870Z,2.83
2022-08-01T20:42:00.226Z,3.07
2022-08-01T20:45:56.149Z,3.27
2022-08-01T20:49:59.747Z,3.30
2022-08-01T20:54:02.234Z,2.67
2022-08-01T20:58:04.125Z,3.23
2022-08-01T21:02:19.727Z,4.87
2022-08-01T21:06:26.538Z,3.10
2022-08-01T21:10:28.947Z,3.90
2022-08-01T21:14:42.434Z,3.53
2022-08-01T21:19:17.975Z,3.73
2022-08-01T21:23:21.737Z,3.23
2022-08-01T21:27:33.509Z,3.87
2022-08-01T21:31:40.349Z,3.53
2022-08-01T21:35:35.893Z,3.30
2022-08-01T21:39:38.016Z,3.50
2022-08-01T21:43:41.602Z,3.70
2022-08-01T21:47:42.910Z,3.40
2022-08-01T21:51:51.827Z,3.90
2022-08-01T21:56:17.129Z,3.43
2022-08-01T22:00:25.773Z,3.50
2022-08-01T22:04:38.225Z,4.10
2022-08-01T22:08:46.398Z,3.53
2022-08-01T22:12:48.299Z,3.20
2022-08-01T22:16:49.812Z,3.93
2022-08-01T22:20:51.225Z,3.83
2022-08-01T22:24:54.431Z,3.67
2022-08-01T22:28:55.815Z,3.70
2022-08-01T22:33:15.333Z,4.33
2022-08-01T22:37:01.155Z,4.10
2022-08-01T22:41:07.848Z,3.53
2022-08-01T22:45:12.807Z,4.33
2022-08-01T22:53:53.194Z,3.37
2022-08-01T22:58:00.696Z,3.97
2022-08-01T23:02:03.597Z,3.43
2022-08-01T23:06:24.306Z,3.30
2022-08-01T23:10:25.949Z,4.07
2022-08-01T23:14:27.947Z,5.63
2022-08-01T23:18:30.957Z,5.37
2022-08-01T23:22:34.323Z,5.57
2022-08-01T23:26:37.798Z,6.13
2022-08-01T23:30:39.431Z,5.03
2022-08-01T23:34:41.030Z,6.03
2022-08-01T23:38:43.184Z,4.43
2022-08-01T23:42:44.605Z,5.27
2022-08-01T23:46:45.644Z,4.50
2022-08-01T23:50:46.955Z,5.00
2022-08-01T23:54:48.091Z,5.33
2022-08-01T23:58:50.883Z,5.40
